Longdendale, United Kingdom
Current Conditions -  °F | °C
As of 3:20 PM on Monday 24 Nov 2014 (Local Time) from EGCC Reporting Station
Clear Clear  
Wind Chill: 45°   Ceiling: Unl
Heat Index: 45°   Visibility: 6mi
Dew Point: 39°   Wind: 3mph
Humidity: 81%   Direction: 160°SSE
Pressure: 30.3"   Gusts: NA
Location:  53.47°N, 2°W
Report Text: EGCC 241520Z 16003KT CAVOK 07/04 Q1026 NOSIG
Loading
Personal Weather Stations






























Interactive Weather Map New forecast layout! Learn more

10-Day Weather Forecast

Advertisements
Track Severe Weather on mobile